Time;durP1;ratioP1;P1;durP2;ratioP2;P2;SDS_P1;SDS_P2;PMS_P1;PMS_P2;Temp;Humidity;BMP_temperature;BMP_pressure;BME280_temperature;BME280_humidity;BME280_pressure;Samples;Min_cycle;Max_cycle;Signal;HPM_P1;HPM_P2
2023/07/06 00:04:00;;;;;;;9.10;4.57;;;;;;;;;;10109544;28;20111;-61
2023/07/06 00:08:52;;;;;;;3.83;3.25;;;;;;;;;;10095396;28;20467;-61
2023/07/06 00:13:45;;;;;;;6.22;3.78;;;;;;;;;;10069550;28;20414;-61
2023/07/06 00:18:39;;;;;;;4.75;3.35;;;;;;;;;;10109963;28;20037;-61
2023/07/06 00:23:31;;;;;;;4.47;3.15;;;;;;;;;;10107822;28;20045;-61
2023/07/06 00:28:24;;;;;;;5.93;3.45;;;;;;;;;;10099939;28;20391;-61
2023/07/06 00:33:17;;;;;;;3.35;2.78;;;;;;;;;;10101452;28;20366;-61
2023/07/06 00:38:14;;;;;;;4.50;3.42;;;;;;;;;;10107086;28;20053;-61
2023/07/06 00:43:15;;;;;;;5.97;3.03;;;;;;;;;;10081946;28;20053;-61
2023/07/06 00:48:17;;;;;;;6.28;4.03;;;;;;;;;;10090958;28;20079;-61
2023/07/06 00:53:13;;;;;;;4.97;3.83;;;;;;;;;;10106027;28;20386;-61
2023/07/06 00:58:14;;;;;;;4.47;3.40;;;;;;;;;;10108109;28;20072;-61
2023/07/06 01:03:06;;;;;;;4.00;3.40;;;;;;;;;;10106654;28;20504;-61
2023/07/06 01:08:11;;;;;;;6.07;3.55;;;;;;;;;;10095404;28;20050;-61
2023/07/06 01:13:03;;;;;;;6.07;3.58;;;;;;;;;;10067499;28;20079;-61
2023/07/06 01:18:13;;;;;;;5.60;4.30;;;;;;;;;;10096905;28;20099;-61
2023/07/06 01:23:13;;;;;;;4.95;3.40;;;;;;;;;;10104903;28;20451;-61
2023/07/06 01:28:23;;;;;;;4.00;3.08;;;;;;;;;;10104881;28;20478;-61
2023/07/06 01:33:20;;;;;;;5.20;3.67;;;;;;;;;;10080599;28;20474;-61
2023/07/06 01:38:12;;;;;;;5.68;3.60;;;;;;;;;;10103916;28;20049;-61
2023/07/06 01:43:05;;;;;;;6.35;4.03;;;;;;;;;;10103578;28;20247;-61
2023/07/06 01:48:06;;;;;;;5.90;3.13;;;;;;;;;;10103888;28;20052;-61
2023/07/06 01:53:11;;;;;;;5.88;3.22;;;;;;;;;;10103185;28;20067;-61
2023/07/06 01:58:15;;;;;;;4.10;2.85;;;;;;;;;;10126703;28;20045;-61
2023/07/06 02:03:08;;;;;;;4.65;2.97;;;;;;;;;;10085081;28;20103;-61
2023/07/06 02:08:00;;;;;;;4.25;3.50;;;;;;;;;;10084819;28;20094;-61
2023/07/06 02:12:52;;;;;;;4.35;2.92;;;;;;;;;;10102546;28;20179;-62
2023/07/06 02:17:45;;;;;;;3.92;3.00;;;;;;;;;;10093613;28;20044;-61
2023/07/06 02:22:39;;;;;;;4.75;3.30;;;;;;;;;;10090109;28;20056;-61
2023/07/06 02:27:32;;;;;;;3.25;2.95;;;;;;;;;;10104223;28;20103;-61
2023/07/06 02:32:24;;;;;;;4.93;3.70;;;;;;;;;;10104219;28;20459;-61
2023/07/06 02:37:16;;;;;;;6.72;3.75;;;;;;;;;;10093351;28;20476;-61
2023/07/06 02:42:08;;;;;;;3.97;3.58;;;;;;;;;;10070987;28;20052;-61
2023/07/06 02:47:00;;;;;;;4.57;3.38;;;;;;;;;;10102171;28;20116;-61
2023/07/06 02:51:52;;;;;;;4.63;3.50;;;;;;;;;;10102195;28;20048;-60
2023/07/06 02:56:44;;;;;;;3.97;2.90;;;;;;;;;;10101217;28;20076;-61
2023/07/06 03:01:36;;;;;;;4.15;3.20;;;;;;;;;;10103619;28;20041;-61
2023/07/06 03:06:30;;;;;;;4.00;3.15;;;;;;;;;;10102376;28;20346;-61
2023/07/06 03:11:23;;;;;;;3.80;3.05;;;;;;;;;;10103164;28;20037;-61
2023/07/06 03:16:15;;;;;;;3.85;3.20;;;;;;;;;;10105058;28;20076;-61
2023/07/06 03:21:11;;;;;;;3.35;3.05;;;;;;;;;;10109046;28;20144;-61
2023/07/06 03:26:03;;;;;;;3.33;2.83;;;;;;;;;;10111120;28;20103;-61
2023/07/06 03:30:56;;;;;;;5.50;3.38;;;;;;;;;;10111344;28;20069;-61
2023/07/06 03:35:48;;;;;;;3.53;2.85;;;;;;;;;;10111605;28;20041;-61
2023/07/06 03:40:40;;;;;;;5.30;3.45;;;;;;;;;;10109702;28;20059;-61
2023/07/06 03:45:32;;;;;;;4.13;3.13;;;;;;;;;;10108264;28;20470;-61
2023/07/06 03:50:24;;;;;;;4.57;3.20;;;;;;;;;;10109471;28;20037;-61
2023/07/06 03:55:24;;;;;;;4.15;3.45;;;;;;;;;;10078904;28;20049;-61
2023/07/06 04:00:20;;;;;;;4.72;3.88;;;;;;;;;;10099208;28;20330;-61
2023/07/06 04:05:11;;;;;;;3.58;2.92;;;;;;;;;;10108940;28;20138;-61
2023/07/06 04:10:05;;;;;;;3.78;3.25;;;;;;;;;;10107557;28;20099;-61
2023/07/06 04:14:57;;;;;;;3.35;2.80;;;;;;;;;;10108941;28;20045;-61
2023/07/06 04:19:53;;;;;;;4.40;2.80;;;;;;;;;;10107469;28;20076;-61
2023/07/06 04:24:45;;;;;;;3.00;2.72;;;;;;;;;;10107725;28;20041;-61
2023/07/06 04:29:37;;;;;;;4.93;3.42;;;;;;;;;;10109312;28;20501;-61
2023/07/06 04:34:30;;;;;;;4.20;3.30;;;;;;;;;;10106777;28;20124;-61
2023/07/06 04:39:22;;;;;;;5.97;3.33;;;;;;;;;;10105314;28;20382;-61
2023/07/06 04:44:14;;;;;;;3.88;3.17;;;;;;;;;;10106547;28;20426;-61
2023/07/06 04:49:06;;;;;;;4.78;2.50;;;;;;;;;;10106632;28;20075;-61
2023/07/06 04:53:58;;;;;;;4.65;3.13;;;;;;;;;;10107196;28;20044;-61
2023/07/06 04:58:50;;;;;;;3.78;2.95;;;;;;;;;;10106541;28;20053;-61
2023/07/06 05:03:44;;;;;;;4.25;3.42;;;;;;;;;;10105271;28;20107;-61
2023/07/06 05:08:36;;;;;;;2.78;2.47;;;;;;;;;;10105488;28;20398;-61
2023/07/06 05:13:28;;;;;;;4.93;3.42;;;;;;;;;;10108380;28;20048;-61
2023/07/06 05:18:22;;;;;;;4.47;3.22;;;;;;;;;;10106052;28;20486;-61
2023/07/06 05:23:14;;;;;;;4.78;3.28;;;;;;;;;;10105152;28;20094;-61
2023/07/06 05:28:09;;;;;;;4.97;3.22;;;;;;;;;;10103958;28;20128;-61
2023/07/06 05:33:01;;;;;;;3.15;2.85;;;;;;;;;;10104952;28;20356;-61
2023/07/06 05:37:54;;;;;;;3.35;2.88;;;;;;;;;;10104049;28;20033;-61
2023/07/06 05:42:46;;;;;;;4.43;3.17;;;;;;;;;;10106095;28;20041;-61
2023/07/06 05:47:37;;;;;;;3.75;3.17;;;;;;;;;;10104242;28;20113;-61
2023/07/06 05:52:29;;;;;;;4.47;3.03;;;;;;;;;;10104118;28;20370;-61
2023/07/06 05:57:21;;;;;;;3.63;3.22;;;;;;;;;;10104092;28;20418;-61
2023/07/06 06:02:17;;;;;;;5.35;3.15;;;;;;;;;;10103998;28;20070;-61
2023/07/06 06:07:10;;;;;;;3.20;2.75;;;;;;;;;;10103277;28;20063;-61
2023/07/06 06:12:04;;;;;;;3.33;3.05;;;;;;;;;;10109454;28;20468;-61
2023/07/06 06:16:57;;;;;;;3.03;2.72;;;;;;;;;;10105215;28;20052;-60
2023/07/06 06:21:50;;;;;;;5.10;3.17;;;;;;;;;;10071056;28;20042;-60
2023/07/06 06:26:42;;;;;;;9.07;4.78;;;;;;;;;;10104444;28;20052;-61
2023/07/06 06:31:36;;;;;;;8.63;5.85;;;;;;;;;;10102362;28;20037;-60
2023/07/06 06:36:28;;;;;;;8.55;6.00;;;;;;;;;;10101477;28;20144;-60
2023/07/06 06:41:21;;;;;;;10.05;8.13;;;;;;;;;;10100139;28;20057;-60
2023/07/06 06:46:14;;;;;;;13.30;7.68;;;;;;;;;;10117747;28;20044;-60
2023/07/06 06:51:09;;;;;;;10.98;7.47;;;;;;;;;;10106545;28;20084;-61
2023/07/06 06:56:04;;;;;;;16.80;7.88;;;;;;;;;;10139074;28;20128;-61
2023/07/06 07:00:57;;;;;;;16.30;9.55;;;;;;;;;;10142447;28;20090;-61
2023/07/06 07:06:16;;;;;;;21.15;10.02;;;;;;;;;;10101826;28;20184;-61
2023/07/06 07:11:07;;;;;;;16.10;10.00;;;;;;;;;;10113724;28;20135;-61
2023/07/06 07:16:15;;;;;;;20.55;9.73;;;;;;;;;;10119964;28;20468;-61
2023/07/06 07:21:07;;;;;;;12.75;8.90;;;;;;;;;;10114119;28;20099;-60
2023/07/06 07:25:59;;;;;;;9.75;7.53;;;;;;;;;;10103049;28;20053;-61
2023/07/06 07:30:56;;;;;;;9.73;6.65;;;;;;;;;;10092842;28;20037;-58
2023/07/06 07:35:48;;;;;;;11.20;6.32;;;;;;;;;;10106154;28;20132;-61
2023/07/06 07:40:40;;;;;;;10.90;6.70;;;;;;;;;;10102136;28;20041;-59
2023/07/06 07:45:32;;;;;;;10.23;6.80;;;;;;;;;;10116158;28;20057;-61
2023/07/06 07:50:24;;;;;;;8.75;6.63;;;;;;;;;;10092522;28;20120;-61
2023/07/06 07:55:16;;;;;;;7.70;6.47;;;;;;;;;;10098482;28;20084;-60
2023/07/06 08:00:10;;;;;;;11.25;6.47;;;;;;;;;;10110888;28;20053;-60
2023/07/06 08:05:09;;;;;;;8.90;7.13;;;;;;;;;;10107810;28;20367;-60
2023/07/06 08:10:01;;;;;;;11.48;6.38;;;;;;;;;;10105622;28;20352;-59
2023/07/06 08:14:53;;;;;;;11.98;7.03;;;;;;;;;;10116886;28;20541;-59
2023/07/06 08:19:45;;;;;;;13.68;7.53;;;;;;;;;;10107099;28;20417;-62
2023/07/06 08:24:58;;;;;;;10.52;6.72;;;;;;;;;;10070145;28;20582;-62
2023/07/06 08:29:51;;;;;;;11.50;5.85;;;;;;;;;;10074771;28;20464;-60
2023/07/06 08:34:43;;;;;;;12.35;6.15;;;;;;;;;;10108456;28;20053;-62
2023/07/06 08:39:35;;;;;;;12.00;5.82;;;;;;;;;;10103311;28;20039;-60
2023/07/06 08:44:27;;;;;;;14.52;6.43;;;;;;;;;;10110185;28;20363;-62
2023/07/06 08:49:31;;;;;;;13.27;6.28;;;;;;;;;;10103328;28;20041;-63
2023/07/06 08:54:25;;;;;;;8.85;6.45;;;;;;;;;;10072607;28;20476;-61
2023/07/06 08:59:26;;;;;;;7.55;5.47;;;;;;;;;;10107386;28;20036;-60
2023/07/06 09:04:19;;;;;;;9.73;5.93;;;;;;;;;;10087641;28;20124;-61
2023/07/06 09:09:12;;;;;;;9.70;4.38;;;;;;;;;;10095810;28;20053;-59
2023/07/06 09:14:10;;;;;;;6.57;4.68;;;;;;;;;;10101026;28;20041;-59
2023/07/06 09:19:09;;;;;;;6.53;3.88;;;;;;;;;;10099488;28;20132;-59
2023/07/06 09:24:01;;;;;;;5.50;3.65;;;;;;;;;;10090949;28;20036;-60
2023/07/06 09:29:11;;;;;;;5.38;3.15;;;;;;;;;;10094484;28;20478;-59
2023/07/06 09:34:04;;;;;;;6.47;3.45;;;;;;;;;;10111028;28;20128;-54
2023/07/06 09:39:03;;;;;;;6.00;2.75;;;;;;;;;;10110207;28;20103;-59
2023/07/06 09:43:59;;;;;;;5.03;2.75;;;;;;;;;;10103995;28;20045;-58
2023/07/06 09:48:52;;;;;;;5.55;3.33;;;;;;;;;;10105060;28;20056;-59
2023/07/06 09:53:58;;;;;;;7.18;3.83;;;;;;;;;;10096102;28;20778;-58
2023/07/06 09:58:52;;;;;;;11.35;4.90;;;;;;;;;;10116789;28;20041;-57
2023/07/06 10:04:01;;;;;;;6.22;2.83;;;;;;;;;;10127662;28;20048;-57
2023/07/06 10:09:05;;;;;;;6.63;2.70;;;;;;;;;;10101643;28;20124;-57
2023/07/06 10:14:14;;;;;;;5.63;3.25;;;;;;;;;;10098816;28;20048;-57
2023/07/06 10:19:29;;;;;;;4.03;2.75;;;;;;;;;;10080689;28;20088;-56
2023/07/06 10:24:36;;;;;;;4.53;3.17;;;;;;;;;;10088045;28;20120;-56
2023/07/06 10:29:42;;;;;;;11.88;5.35;;;;;;;;;;10104180;28;20431;-57
2023/07/06 10:34:55;;;;;;;3.30;2.75;;;;;;;;;;10098262;28;20037;-57
2023/07/06 10:39:47;;;;;;;3.33;2.70;;;;;;;;;;10102631;28;20356;-56
2023/07/06 10:44:40;;;;;;;7.55;3.35;;;;;;;;;;10100788;28;20124;-61
2023/07/06 10:50:03;;;;;;;7.95;3.90;;;;;;;;;;10091143;28;20041;-61
2023/07/06 10:54:55;;;;;;;6.95;3.55;;;;;;;;;;10078545;28;20041;-61
2023/07/06 10:59:52;;;;;;;4.40;3.15;;;;;;;;;;10088626;28;20048;-60
2023/07/06 11:04:55;;;;;;;5.10;3.47;;;;;;;;;;10099948;28;20055;-62
2023/07/06 11:10:19;;;;;;;5.22;3.67;;;;;;;;;;10101395;28;20103;-60
2023/07/06 11:15:16;;;;;;;6.38;3.25;;;;;;;;;;10102174;28;20052;-59
2023/07/06 11:20:16;;;;;;;4.03;2.70;;;;;;;;;;10096402;28;20057;-59
2023/07/06 11:25:11;;;;;;;6.40;3.83;;;;;;;;;;10081141;28;20099;-59
2023/07/06 11:30:14;;;;;;;3.28;2.42;;;;;;;;;;10090986;28;20549;-58
2023/07/06 11:35:24;;;;;;;4.57;2.53;;;;;;;;;;10102465;28;20056;-62
2023/07/06 11:40:41;;;;;;;5.20;2.58;;;;;;;;;;10101821;28;20506;-58
2023/07/06 11:45:51;;;;;;;3.70;3.08;;;;;;;;;;10104455;28;20075;-59
2023/07/06 11:50:43;;;;;;;3.55;2.30;;;;;;;;;;10102507;28;20076;-59
2023/07/06 11:55:50;;;;;;;2.63;1.92;;;;;;;;;;10106937;28;20098;-59
2023/07/06 12:00:52;;;;;;;4.65;2.40;;;;;;;;;;10101221;28;20056;-59
2023/07/06 12:05:49;;;;;;;5.05;2.50;;;;;;;;;;10097201;28;20114;-57
2023/07/06 12:10:48;;;;;;;;;;;;;;;;;;10105556;28;20037;-59
2023/07/06 12:19:37;;;;;;;6.70;2.83;;;;;;;;;;10131941;28;20381;-49
2023/07/06 12:24:29;;;;;;;5.00;2.60;;;;;;;;;;10111480;28;20037;-48
2023/07/06 12:29:23;;;;;;;3.50;2.45;;;;;;;;;;10073233;28;20057;-47
2023/07/06 12:34:18;;;;;;;3.83;2.28;;;;;;;;;;10080939;28;20071;-49
2023/07/06 12:39:14;;;;;;;3.17;2.20;;;;;;;;;;10084410;28;20076;-50
2023/07/06 12:44:17;;;;;;;2.47;1.95;;;;;;;;;;10089328;28;20053;-47
2023/07/06 12:49:16;;;;;;;7.00;2.17;;;;;;;;;;10078929;28;20049;-50
2023/07/06 12:54:09;;;;;;;3.92;1.90;;;;;;;;;;10075723;28;20179;-48
2023/07/06 12:59:02;;;;;;;3.08;1.50;;;;;;;;;;10091034;28;20538;-49
2023/07/06 13:04:02;;;;;;;3.00;1.85;;;;;;;;;;10072189;28;20045;-48
2023/07/06 13:08:56;;;;;;;5.18;2.22;;;;;;;;;;10073595;28;20049;-48
2023/07/06 13:13:50;;;;;;;3.92;2.47;;;;;;;;;;10084842;28;20096;-57
2023/07/06 13:18:46;;;;;;;4.20;2.20;;;;;;;;;;10074783;28;20045;-57
2023/07/06 13:23:38;;;;;;;2.25;1.88;;;;;;;;;;10086303;28;20132;-57
2023/07/06 13:28:31;;;;;;;5.03;2.17;;;;;;;;;;10041692;28;20072;-58
2023/07/06 13:33:23;;;;;;;3.20;2.17;;;;;;;;;;10028504;28;20077;-58
2023/07/06 13:38:15;;;;;;;2.65;2.03;;;;;;;;;;10038675;28;20419;-57
2023/07/06 13:43:15;;;;;;;3.05;2.20;;;;;;;;;;10045784;28;20049;-58
2023/07/06 13:48:08;;;;;;;5.70;2.83;;;;;;;;;;10064528;28;20475;-57
2023/07/06 13:53:01;;;;;;;5.68;2.10;;;;;;;;;;10053888;28;20048;-58
2023/07/06 13:57:52;;;;;;;4.35;2.28;;;;;;;;;;10027595;28;20273;-59
2023/07/06 14:02:47;;;;;;;3.63;2.28;;;;;;;;;;10027967;28;20077;-58
2023/07/06 14:07:40;;;;;;;3.83;2.50;;;;;;;;;;10026846;28;20042;-58
2023/07/06 14:12:32;;;;;;;6.25;2.25;;;;;;;;;;10026559;28;20053;-57
2023/07/06 14:17:24;;;;;;;2.83;2.10;;;;;;;;;;10061402;28;20084;-59
2023/07/06 14:22:15;;;;;;;4.82;2.50;;;;;;;;;;10075253;28;20528;-59
2023/07/06 14:27:10;;;;;;;4.57;2.53;;;;;;;;;;10077185;28;20045;-60
2023/07/06 14:32:02;;;;;;;6.43;2.97;;;;;;;;;;10068556;28;20130;-59
2023/07/06 14:36:54;;;;;;;3.90;3.10;;;;;;;;;;10040513;28;20104;-60
2023/07/06 14:41:46;;;;;;;6.07;2.90;;;;;;;;;;10076103;28;20100;-61
2023/07/06 14:46:39;;;;;;;4.63;2.65;;;;;;;;;;10078847;28;20186;-61
2023/07/06 14:51:32;;;;;;;7.65;2.50;;;;;;;;;;10053261;28;20049;-60
2023/07/06 14:56:24;;;;;;;3.75;2.28;;;;;;;;;;10038803;28;20129;-58
2023/07/06 15:01:16;;;;;;;3.53;2.53;;;;;;;;;;10028444;28;20042;-60
2023/07/06 15:06:10;;;;;;;4.00;2.05;;;;;;;;;;10041726;28;20076;-60
2023/07/06 15:11:02;;;;;;;4.63;2.60;;;;;;;;;;10096190;28;20103;-60
2023/07/06 15:15:54;;;;;;;4.28;2.30;;;;;;;;;;10042785;28;20116;-59
2023/07/06 15:20:46;;;;;;;4.18;2.40;;;;;;;;;;10067159;28;20040;-60
2023/07/06 15:25:38;;;;;;;2.97;2.50;;;;;;;;;;10079974;28;20434;-59
2023/07/06 15:30:30;;;;;;;4.10;2.25;;;;;;;;;;10041455;28;20136;-60
2023/07/06 15:35:22;;;;;;;4.55;2.92;;;;;;;;;;10032457;28;20104;-61
2023/07/06 15:40:14;;;;;;;3.35;2.75;;;;;;;;;;10049205;28;20041;-60
2023/07/06 15:45:06;;;;;;;3.13;2.45;;;;;;;;;;10056084;28;20046;-60
2023/07/06 15:49:58;;;;;;;6.43;3.22;;;;;;;;;;10046319;28;20046;-60
2023/07/06 15:54:50;;;;;;;4.65;2.70;;;;;;;;;;10045316;28;20069;-60
2023/07/06 15:59:42;;;;;;;2.40;2.20;;;;;;;;;;10041536;28;20387;-61
2023/07/06 16:04:34;;;;;;;4.13;2.55;;;;;;;;;;10072432;28;20398;-60
2023/07/06 16:09:25;;;;;;;3.90;2.65;;;;;;;;;;10081306;28;20069;-60
2023/07/06 16:14:17;;;;;;;2.92;2.17;;;;;;;;;;10021327;28;20464;-59
2023/07/06 16:19:14;;;;;;;3.42;2.55;;;;;;;;;;10063479;28;20050;-62
2023/07/06 16:24:08;;;;;;;3.30;2.53;;;;;;;;;;10056371;28;20041;-58
2023/07/06 16:29:00;;;;;;;3.25;2.38;;;;;;;;;;10040092;28;20046;-58
2023/07/06 16:33:51;;;;;;;3.28;2.95;;;;;;;;;;10024025;28;20096;-60
2023/07/06 16:38:44;;;;;;;2.65;2.28;;;;;;;;;;10036498;28;20571;-61
2023/07/06 16:43:36;;;;;;;3.75;2.60;;;;;;;;;;10021917;28;20108;-60
2023/07/06 16:48:32;;;;;;;7.35;4.38;;;;;;;;;;10030261;28;20651;-59
2023/07/06 16:53:24;;;;;;;8.80;2.72;;;;;;;;;;10063247;28;20091;-59
2023/07/06 16:58:17;;;;;;;4.60;2.80;;;;;;;;;;10050816;28;20360;-58
2023/07/06 17:03:10;;;;;;;6.65;3.30;;;;;;;;;;10045404;28;20038;-59
2023/07/06 17:12:12;;;;;;;10.52;3.58;;;;;;;;;;10131031;28;20422;-59
2023/07/06 17:17:04;;;;;;;4.10;3.00;;;;;;;;;;10093929;28;20436;-60
2023/07/06 17:21:56;;;;;;;6.05;3.88;;;;;;;;;;10094118;28;20386;-60
2023/07/06 17:26:48;;;;;;;7.38;2.97;;;;;;;;;;10096815;28;20056;-60
2023/07/06 17:31:40;;;;;;;5.53;2.70;;;;;;;;;;10069237;28;20046;-60
2023/07/06 17:36:32;;;;;;;3.58;2.80;;;;;;;;;;10094399;28;20524;-60
2023/07/06 17:41:23;;;;;;;9.68;2.40;;;;;;;;;;10083840;28;20072;-46
2023/07/06 17:46:16;;;;;;;6.97;3.00;;;;;;;;;;10094879;28;20467;-46
2023/07/06 17:51:09;;;;;;;4.00;2.60;;;;;;;;;;10071635;28;20046;-63
2023/07/06 17:56:01;;;;;;;4.70;2.42;;;;;;;;;;10073695;28;20049;-63
2023/07/06 18:00:54;;;;;;;7.97;2.78;;;;;;;;;;10092937;28;20108;-64
2023/07/06 18:05:48;;;;;;;4.28;3.15;;;;;;;;;;10072415;28;20049;-64
2023/07/06 18:10:40;;;;;;;11.75;3.63;;;;;;;;;;10102562;28;20386;-65
2023/07/06 18:15:32;;;;;;;10.80;4.13;;;;;;;;;;10094558;28;20045;-54
2023/07/06 18:20:24;;;;;;;4.93;3.03;;;;;;;;;;10080538;28;20064;-55
2023/07/06 18:25:17;;;;;;;37.65;5.40;;;;;;;;;;10055425;28;20048;-54
2023/07/06 18:30:10;;;;;;;16.25;5.47;;;;;;;;;;10052522;28;20149;-48
2023/07/06 18:35:02;;;;;;;6.38;3.55;;;;;;;;;;10065494;28;20046;-55
2023/07/06 18:39:54;;;;;;;7.85;3.08;;;;;;;;;;10044149;28;20450;-52
2023/07/06 18:45:03;;;;;;;5.00;4.20;;;;;;;;;;10034472;28;20412;-46
2023/07/06 18:49:56;;;;;;;6.00;4.32;;;;;;;;;;10031700;28;20054;-47
2023/07/06 18:54:48;;;;;;;5.15;2.80;;;;;;;;;;10034220;28;20041;-55
2023/07/06 20:46:40;;;;;;;5.85;3.17;;;;;;;;;;10137925;28;20430;-63
2023/07/06 20:51:32;;;;;;;6.22;3.20;;;;;;;;;;10128675;28;20049;-65
2023/07/06 20:56:23;;;;;;;5.28;3.22;;;;;;;;;;10104740;28;20546;-62
2023/07/06 21:01:15;;;;;;;3.00;2.40;;;;;;;;;;10095051;28;20546;-62
2023/07/06 21:06:07;;;;;;;6.47;3.00;;;;;;;;;;10103060;28;20122;-61
2023/07/06 21:11:00;;;;;;;7.32;2.70;;;;;;;;;;10133899;28;20098;-62
2023/07/06 21:15:52;;;;;;;3.30;2.45;;;;;;;;;;10101919;28;20510;-65
2023/07/06 21:20:45;;;;;;;4.93;2.78;;;;;;;;;;10085216;28;20044;-64
2023/07/06 21:25:37;;;;;;;5.75;3.22;;;;;;;;;;10089617;28;20049;-65
2023/07/06 21:30:29;;;;;;;2.78;2.45;;;;;;;;;;10098179;28;20033;-63
2023/07/06 21:35:21;;;;;;;5.15;2.85;;;;;;;;;;10095896;28;20077;-66
2023/07/06 21:40:13;;;;;;;10.93;4.00;;;;;;;;;;10083817;28;20045;-66
2023/07/06 21:45:05;;;;;;;3.17;2.72;;;;;;;;;;10088969;28;20490;-64
2023/07/06 21:49:57;;;;;;;5.07;3.63;;;;;;;;;;10095404;28;20044;-66
2023/07/06 21:54:49;;;;;;;5.88;4.38;;;;;;;;;;10083057;28;20099;-66
2023/07/06 21:59:41;;;;;;;4.95;3.25;;;;;;;;;;10061190;28;20046;-65
2023/07/06 22:04:33;;;;;;;5.30;3.25;;;;;;;;;;10045711;28;20037;-65
2023/07/06 22:09:25;;;;;;;7.13;3.88;;;;;;;;;;10050996;28;20395;-62
2023/07/06 22:14:17;;;;;;;8.50;3.75;;;;;;;;;;10051758;28;20475;-63
2023/07/06 22:19:09;;;;;;;9.73;3.95;;;;;;;;;;10050546;28;20050;-64
2023/07/06 22:24:01;;;;;;;7.93;3.65;;;;;;;;;;10064160;28;20099;-64
2023/07/06 22:28:54;;;;;;;6.78;3.42;;;;;;;;;;10059374;28;20061;-63
2023/07/06 22:33:46;;;;;;;6.15;2.80;;;;;;;;;;10057448;28;20072;-61
2023/07/06 22:38:39;;;;;;;6.45;3.47;;;;;;;;;;10054080;28;20073;-59
2023/07/06 22:43:31;;;;;;;6.13;3.10;;;;;;;;;;10054916;28;20049;-61
2023/07/06 22:48:23;;;;;;;4.88;3.47;;;;;;;;;;10067469;28;20053;-62
2023/07/06 22:53:15;;;;;;;7.90;2.75;;;;;;;;;;10068695;28;20103;-62
2023/07/06 22:58:07;;;;;;;8.27;3.15;;;;;;;;;;10066633;28;20045;-61
2023/07/06 23:02:59;;;;;;;4.93;2.85;;;;;;;;;;10064912;28;20034;-61
2023/07/06 23:07:52;;;;;;;6.13;3.28;;;;;;;;;;10065116;28;20084;-63
2023/07/06 23:12:45;;;;;;;8.63;3.28;;;;;;;;;;10065473;28;20103;-62
2023/07/06 23:17:37;;;;;;;4.07;3.05;;;;;;;;;;10054533;28;20077;-62
2023/07/06 23:22:33;;;;;;;4.90;2.90;;;;;;;;;;10067248;28;20088;-62
2023/07/06 23:27:25;;;;;;;4.30;2.50;;;;;;;;;;10065361;28;20456;-62
2023/07/06 23:32:17;;;;;;;5.55;3.00;;;;;;;;;;10040812;28;20049;-60
2023/07/06 23:37:09;;;;;;;4.53;3.22;;;;;;;;;;10062930;28;20437;-60
2023/07/06 23:42:01;;;;;;;4.70;3.05;;;;;;;;;;10064208;28;20038;-59
2023/07/06 23:46:53;;;;;;;5.95;2.97;;;;;;;;;;10028200;28;20533;-59
2023/07/06 23:51:47;;;;;;;6.78;2.90;;;;;;;;;;10046672;28;20056;-62
2023/07/06 23:56:40;;;;;;;4.78;3.22;;;;;;;;;;10065290;28;20379;-61
